createdAt,value
2023-03-02T00:01:11.320Z,13.52
2023-03-02T00:04:18.119Z,10.77
2023-03-02T00:07:26.031Z,12.27
2023-03-02T00:10:28.755Z,11.48
2023-03-02T00:13:32.213Z,11.07
2023-03-02T00:16:34.946Z,11.65
2023-03-02T00:19:37.495Z,11.07
2023-03-02T00:22:43.429Z,11.48
2023-03-02T00:25:45.289Z,10.65
2023-03-02T00:28:49.430Z,10.88
2023-03-02T00:31:51.502Z,11.55
2023-03-02T00:34:53.515Z,10.60
2023-03-02T00:37:55.430Z,11.20
2023-03-02T00:40:57.283Z,10.18
2023-03-02T00:44:01.384Z,10.85
2023-03-02T00:47:03.402Z,10.65
2023-03-02T00:50:06.709Z,10.63
2023-03-02T00:53:08.954Z,10.30
2023-03-02T00:56:11.236Z,12.02
2023-03-02T00:59:17.989Z,11.00
2023-03-02T01:02:20.221Z,10.77
2023-03-02T01:05:22.691Z,11.25
2023-03-02T01:08:24.618Z,11.27
2023-03-02T01:11:26.530Z,10.63
2023-03-02T01:14:28.933Z,10.35
2023-03-02T01:17:30.788Z,10.68
2023-03-02T01:20:32.748Z,10.73
2023-03-02T01:23:34.709Z,10.88
2023-03-02T01:26:37.260Z,10.30
2023-03-02T01:29:39.952Z,10.30
2023-03-02T01:32:41.864Z,10.63
2023-03-02T01:35:47.303Z,11.05
2023-03-02T01:38:49.516Z,11.05
2023-03-02T01:41:52.737Z,9.70
2023-03-02T01:44:55.148Z,10.55
2023-03-02T01:47:57.019Z,10.85
2023-03-02T01:51:00.244Z,11.48
2023-03-02T01:54:09.209Z,10.52
2023-03-02T01:57:11.906Z,10.93
2023-03-02T02:00:18.593Z,10.98
2023-03-02T02:03:26.378Z,10.10
2023-03-02T02:06:40.704Z,11.60
2023-03-02T02:09:50.999Z,11.13
2023-03-02T02:12:52.936Z,11.60
2023-03-02T02:15:54.932Z,10.85
2023-03-02T02:18:57.768Z,11.30
2023-03-02T02:21:59.672Z,11.15
2023-03-02T02:25:05.177Z,10.18
2023-03-02T02:28:14.271Z,11.15
2023-03-02T02:31:29.099Z,11.43
2023-03-02T02:34:40.128Z,11.20
2023-03-02T02:37:49.694Z,12.05
2023-03-02T02:40:56.867Z,11.82
2023-03-02T02:44:04.133Z,11.80
2023-03-02T02:47:19.749Z,11.13
2023-03-02T02:50:35.716Z,11.35
2023-03-02T02:53:50.110Z,13.15
2023-03-02T02:56:56.353Z,10.98
2023-03-02T03:00:00.376Z,11.80
2023-03-02T03:03:13.516Z,12.13
2023-03-02T03:06:19.533Z,11.65
2023-03-02T03:09:22.134Z,11.80
2023-03-02T03:12:26.873Z,11.77
2023-03-02T03:15:28.936Z,12.43
2023-03-02T03:18:30.788Z,10.93
2023-03-02T03:21:32.820Z,12.50
2023-03-02T03:24:35.550Z,11.50
2023-03-02T03:27:39.171Z,12.32
2023-03-02T03:30:41.575Z,11.40
2023-03-02T03:33:43.652Z,11.98
2023-03-02T03:36:45.630Z,11.73
2023-03-02T03:39:47.665Z,10.98
2023-03-02T03:42:50.954Z,11.20
2023-03-02T03:45:53.344Z,11.45
2023-03-02T03:48:55.382Z,11.98
2023-03-02T03:51:57.324Z,11.05
2023-03-02T03:55:01.554Z,11.35
2023-03-02T03:58:04.228Z,11.90
2023-03-02T04:01:06.228Z,11.93
2023-03-02T04:04:12.045Z,10.85
2023-03-02T04:07:16.957Z,13.00
2023-03-02T04:10:20.227Z,10.48
2023-03-02T04:13:23.124Z,12.63
2023-03-02T04:16:25.341Z,11.68
2023-03-02T04:19:27.468Z,11.95
2023-03-02T04:22:32.392Z,11.75
2023-03-02T04:25:34.450Z,12.40
2023-03-02T04:28:56.682Z,11.38
2023-03-02T04:31:58.718Z,11.20
2023-03-02T04:35:02.364Z,11.90
2023-03-02T04:38:04.406Z,11.40
2023-03-02T04:41:06.415Z,11.70
2023-03-02T04:44:08.281Z,12.20
2023-03-02T04:47:10.961Z,11.57
2023-03-02T04:50:14.948Z,11.68
2023-03-02T04:53:16.830Z,11.25
2023-03-02T04:56:18.908Z,11.10
2023-03-02T04:59:26.276Z,11.52
2023-03-02T05:02:30.416Z,11.63
2023-03-02T05:05:33.169Z,11.93
2023-03-02T05:08:35.649Z,11.48
2023-03-02T05:14:45.908Z,12.43
2023-03-02T05:17:47.927Z,11.63
2023-03-02T05:20:53.312Z,11.88
2023-03-02T05:23:55.347Z,11.60
2023-03-02T05:26:57.362Z,12.93
2023-03-02T05:29:59.309Z,12.55
2023-03-02T05:33:01.274Z,12.10
2023-03-02T05:36:03.433Z,11.40
2023-03-02T05:39:07.280Z,12.02
2023-03-02T05:42:10.224Z,11.55
2023-03-02T05:45:31.808Z,11.65
2023-03-02T05:51:35.972Z,13.35
2023-03-02T05:54:37.983Z,12.20
2023-03-02T05:57:40.770Z,11.82
2023-03-02T06:00:44.192Z,12.63
2023-03-02T06:03:46.212Z,12.15
2023-03-02T06:06:48.256Z,12.15
2023-03-02T06:09:50.377Z,12.23
2023-03-02T06:12:52.503Z,11.77
2023-03-02T06:15:54.500Z,12.40
2023-03-02T06:18:56.502Z,11.75
2023-03-02T06:21:58.501Z,12.32
2023-03-02T06:25:00.488Z,11.80
2023-03-02T06:28:02.490Z,11.80
2023-03-02T06:31:04.683Z,12.52
2023-03-02T06:34:06.599Z,11.23
2023-03-02T06:37:08.490Z,12.85
2023-03-02T06:40:11.608Z,12.15
2023-03-02T06:43:14.060Z,12.05
2023-03-02T06:46:15.980Z,12.38
2023-03-02T06:49:17.974Z,12.00
2023-03-02T06:52:19.857Z,12.05
2023-03-02T06:55:22.521Z,13.02
2023-03-02T06:58:24.474Z,12.15
2023-03-02T07:01:26.585Z,12.05
2023-03-02T07:04:28.584Z,13.20
2023-03-02T07:07:30.497Z,11.40
2023-03-02T07:10:32.468Z,11.48
2023-03-02T07:13:34.352Z,11.43
2023-03-02T07:16:36.283Z,10.95
2023-03-02T07:19:40.656Z,10.82
2023-03-02T07:22:43.581Z,11.40
2023-03-02T07:25:45.475Z,11.45
2023-03-02T07:28:47.385Z,11.00
2023-03-02T07:31:49.272Z,11.25
2023-03-02T07:34:51.123Z,11.63
2023-03-02T07:37:53.086Z,11.07
2023-03-02T07:40:55.046Z,10.95
2023-03-02T07:43:57.156Z,10.90
2023-03-02T07:46:59.021Z,11.57
2023-03-02T07:50:00.895Z,10.93
2023-03-02T07:53:02.816Z,12.05
2023-03-02T07:56:09.323Z,11.52
2023-03-02T07:59:14.406Z,12.13
2023-03-02T08:02:18.126Z,12.05
2023-03-02T08:05:19.968Z,11.48
2023-03-02T08:08:24.358Z,11.20
2023-03-02T08:11:26.205Z,11.40
2023-03-02T08:14:28.673Z,12.23
2023-03-02T08:17:30.604Z,10.40
2023-03-02T08:20:32.579Z,10.95
2023-03-02T08:23:34.692Z,10.05
2023-03-02T08:26:36.793Z,12.30
2023-03-02T08:29:38.741Z,11.63
2023-03-02T08:32:41.287Z,11.25
2023-03-02T08:38:45.714Z,12.10
2023-03-02T08:44:51.757Z,11.40
2023-03-02T08:47:54.002Z,11.75
2023-03-02T08:50:57.008Z,12.13
2023-03-02T08:53:58.996Z,12.25
2023-03-02T08:57:01.846Z,12.30
2023-03-02T09:00:04.402Z,11.75
2023-03-02T09:03:08.471Z,11.55
2023-03-02T09:06:10.572Z,11.88
2023-03-02T09:09:14.443Z,12.43
2023-03-02T09:12:16.361Z,11.90
2023-03-02T09:15:18.557Z,12.40
2023-03-02T09:18:20.551Z,11.85
2023-03-02T09:21:23.038Z,11.18
2023-03-02T09:27:27.097Z,11.77
2023-03-02T09:30:29.099Z,11.65
2023-03-02T09:33:31.667Z,11.48
2023-03-02T09:36:33.697Z,12.10
2023-03-02T09:39:37.732Z,12.02
2023-03-02T09:43:01.429Z,12.52
2023-03-02T09:46:17.581Z,12.30
2023-03-02T09:49:55.772Z,11.35
2023-03-02T09:53:32.644Z,11.45
2023-03-02T09:56:38.784Z,12.35
2023-03-02T09:59:48.623Z,12.05
2023-03-02T10:02:56.229Z,11.77
2023-03-02T10:05:59.595Z,12.10
2023-03-02T10:09:01.880Z,12.57
2023-03-02T10:12:30.866Z,12.20
2023-03-02T10:15:54.633Z,11.93
2023-03-02T10:19:09.159Z,11.80
2023-03-02T10:22:27.710Z,11.52
2023-03-02T10:25:52.443Z,12.15
2023-03-02T10:29:11.491Z,12.18
2023-03-02T10:32:25.648Z,11.80
2023-03-02T10:35:30.846Z,11.10
2023-03-02T10:38:33.044Z,12.18
2023-03-02T10:41:40.972Z,12.05
2023-03-02T10:44:49.000Z,12.13
2023-03-02T10:48:04.571Z,10.93
2023-03-02T10:51:06.743Z,11.30
2023-03-02T10:54:14.323Z,11.60
2023-03-02T10:57:25.411Z,11.80
2023-03-02T11:00:29.162Z,11.38
2023-03-02T11:03:32.616Z,10.57
2023-03-02T11:06:36.805Z,10.93
2023-03-02T11:09:39.445Z,10.27
2023-03-02T11:12:46.538Z,10.68
2023-03-02T11:15:53.572Z,10.38
2023-03-02T11:19:01.082Z,10.65
2023-03-02T11:22:08.707Z,9.88
2023-03-02T11:25:25.632Z,10.70
2023-03-02T11:28:45.984Z,9.77
2023-03-02T11:32:06.194Z,9.90
2023-03-02T11:35:32.983Z,9.48
2023-03-02T11:38:55.257Z,10.77
2023-03-02T11:41:57.454Z,9.88
2023-03-02T11:45:04.154Z,9.95
2023-03-02T11:48:17.842Z,10.82
2023-03-02T12:03:37.729Z,11.15
2023-03-02T12:06:41.616Z,9.73
2023-03-02T12:09:43.767Z,9.73
2023-03-02T12:12:58.230Z,9.82
2023-03-02T12:16:00.246Z,9.52
2023-03-02T12:19:17.128Z,9.98
2023-03-02T12:22:32.201Z,9.50
2023-03-02T12:25:42.991Z,10.30
2023-03-02T12:29:22.575Z,9.73
2023-03-02T12:32:28.718Z,10.18
2023-03-02T12:35:33.800Z,10.90
2023-03-02T12:38:37.374Z,10.15
2023-03-02T12:41:57.882Z,9.32
2023-03-02T12:45:04.970Z,9.85
2023-03-02T12:48:42.183Z,10.20
2023-03-02T12:52:19.505Z,10.40
2023-03-02T12:55:22.346Z,9.43
2023-03-02T12:58:29.223Z,8.95
2023-03-02T13:01:33.047Z,10.55
2023-03-02T13:04:34.945Z,10.20
2023-03-02T13:07:40.164Z,9.70
2023-03-02T13:10:51.492Z,9.55
2023-03-02T13:13:53.939Z,9.38
2023-03-02T13:17:01.713Z,9.55
2023-03-02T13:20:05.660Z,10.10
2023-03-02T13:23:09.939Z,9.80
2023-03-02T13:26:31.597Z,10.15
2023-03-02T13:29:34.082Z,9.00
2023-03-02T13:32:40.201Z,8.57
2023-03-02T13:35:46.678Z,9.32
2023-03-02T13:38:51.707Z,9.05
2023-03-02T13:41:59.120Z,10.10
2023-03-02T13:45:19.754Z,10.07
2023-03-02T13:51:24.387Z,10.23
2023-03-02T13:54:30.225Z,10.13
2023-03-02T13:57:32.814Z,9.75
2023-03-02T14:00:35.500Z,9.98
2023-03-02T14:03:37.537Z,9.82
2023-03-02T14:06:39.455Z,9.82
2023-03-02T14:09:43.903Z,8.77
2023-03-02T14:13:07.515Z,10.05
2023-03-02T14:16:16.312Z,9.75
2023-03-02T14:19:18.508Z,9.65
2023-03-02T14:22:21.477Z,9.88
2023-03-02T14:25:23.448Z,9.98
2023-03-02T14:28:32.911Z,10.18
2023-03-02T14:31:35.255Z,9.10
2023-03-02T14:37:49.059Z,11.38
2023-03-02T14:40:50.986Z,11.90
2023-03-02T14:43:52.937Z,11.95
2023-03-02T14:46:54.812Z,12.10
2023-03-02T14:49:56.730Z,11.85
2023-03-02T14:52:59.212Z,11.45
2023-03-02T14:56:01.716Z,12.25
2023-03-02T15:02:15.919Z,11.43
2023-03-02T15:05:26.132Z,12.27
2023-03-02T15:08:28.033Z,11.50
2023-03-02T15:11:32.673Z,11.07
2023-03-02T15:14:34.768Z,12.48
2023-03-02T15:17:36.738Z,11.90
2023-03-02T15:20:39.465Z,11.90
2023-03-02T15:23:41.438Z,11.23
2023-03-02T15:29:50.317Z,12.93
2023-03-02T15:32:52.304Z,12.65
2023-03-02T15:35:55.471Z,12.18
2023-03-02T15:38:57.727Z,12.82
2023-03-02T15:42:06.300Z,12.80
2023-03-02T15:45:08.396Z,11.45
2023-03-02T15:48:12.565Z,11.35
2023-03-02T15:51:15.410Z,12.10
2023-03-02T15:54:17.641Z,11.75
2023-03-02T15:57:19.716Z,11.77
2023-03-02T16:00:21.988Z,13.15
2023-03-02T16:03:24.483Z,11.93
2023-03-02T16:06:26.921Z,12.80
2023-03-02T16:09:31.345Z,11.65
2023-03-02T16:12:33.347Z,12.00
2023-03-02T16:15:39.711Z,12.13
2023-03-02T16:18:41.607Z,11.27
2023-03-02T16:21:43.776Z,11.23
2023-03-02T16:24:45.696Z,12.55
2023-03-02T16:27:47.581Z,10.90
2023-03-02T16:30:49.444Z,14.43
2023-03-02T16:33:51.340Z,12.00
2023-03-02T16:36:53.292Z,12.60
2023-03-02T16:39:55.222Z,11.95
2023-03-02T16:42:57.108Z,13.00
2023-03-02T16:45:59.693Z,12.27
2023-03-02T16:52:03.859Z,13.00
2023-03-02T16:55:18.435Z,13.57
2023-03-02T16:58:22.516Z,13.10
2023-03-02T17:01:24.733Z,12.40
2023-03-02T17:04:26.659Z,13.60
2023-03-02T17:07:28.570Z,12.52
2023-03-02T17:10:30.508Z,13.20
2023-03-02T17:13:32.483Z,12.55
2023-03-02T17:16:34.357Z,13.00
2023-03-02T17:19:36.547Z,12.95
2023-03-02T17:22:38.775Z,14.05
2023-03-02T17:25:40.757Z,13.43
2023-03-02T17:28:42.795Z,13.02
2023-03-02T17:31:44.794Z,13.65
2023-03-02T17:34:47.440Z,13.57
2023-03-02T17:37:49.406Z,13.73
2023-03-02T17:40:51.280Z,14.95
2023-03-02T17:43:53.193Z,14.05
2023-03-02T17:46:55.138Z,13.13
2023-03-02T17:49:57.050Z,11.35
2023-03-02T17:52:59.665Z,12.77
2023-03-02T17:56:01.599Z,12.02
2023-03-02T17:59:04.792Z,13.27
2023-03-02T18:02:06.691Z,13.48
2023-03-02T18:05:09.590Z,12.88
2023-03-02T18:08:11.526Z,13.30
2023-03-02T18:11:13.586Z,13.07
2023-03-02T18:14:18.188Z,14.30
2023-03-02T18:17:20.317Z,14.32
2023-03-02T18:20:22.264Z,13.80
2023-03-02T18:23:26.634Z,14.35
2023-03-02T18:26:28.601Z,15.18
2023-03-02T18:29:30.578Z,15.25
2023-03-02T18:32:32.486Z,14.48
2023-03-02T18:35:34.700Z,14.23
2023-03-02T18:38:37.723Z,13.73
2023-03-02T18:41:40.020Z,14.10
2023-03-02T18:44:42.350Z,14.70
2023-03-02T18:47:46.163Z,14.32
2023-03-02T18:50:48.484Z,15.05
2023-03-02T18:53:51.879Z,14.15
2023-03-02T18:56:53.932Z,14.80
2023-03-02T18:59:56.103Z,15.55
2023-03-02T19:03:01.180Z,15.93
2023-03-02T19:06:04.442Z,16.70
2023-03-02T19:09:06.524Z,15.82
2023-03-02T19:12:08.614Z,14.63
2023-03-02T19:15:11.974Z,14.60
2023-03-02T19:18:24.117Z,16.02
2023-03-02T19:21:26.077Z,15.05
2023-03-02T19:24:28.236Z,16.00
2023-03-02T19:27:30.170Z,15.93
2023-03-02T19:30:32.637Z,13.32
2023-03-02T19:33:35.082Z,14.20
2023-03-02T19:36:36.911Z,14.82
2023-03-02T19:39:39.276Z,14.65
2023-03-02T19:42:44.228Z,15.02
2023-03-02T19:45:46.133Z,14.07
2023-03-02T19:48:48.322Z,15.93
2023-03-02T19:51:50.256Z,14.80
2023-03-02T19:54:52.250Z,15.73
2023-03-02T19:57:54.263Z,15.80
2023-03-02T20:00:56.203Z,14.68
2023-03-02T20:03:58.830Z,16.92
2023-03-02T20:07:03.125Z,15.20
2023-03-02T20:10:07.036Z,16.83
2023-03-02T20:13:09.881Z,15.35
2023-03-02T20:19:15.806Z,15.63
2023-03-02T20:22:17.699Z,16.35
2023-03-02T20:25:20.343Z,15.90
2023-03-02T20:28:23.642Z,16.10
2023-03-02T20:31:26.289Z,16.60
2023-03-02T20:34:29.027Z,16.80
2023-03-02T20:37:31.109Z,16.00
2023-03-02T20:40:34.163Z,16.70
2023-03-02T20:46:48.132Z,17.75
2023-03-02T20:49:50.122Z,16.75
2023-03-02T20:52:59.252Z,17.58
2023-03-02T20:56:01.239Z,17.95
2023-03-02T20:59:03.815Z,16.65
2023-03-02T21:02:06.108Z,16.63
2023-03-02T21:05:08.362Z,17.00
2023-03-02T21:08:12.151Z,18.00
2023-03-02T21:11:16.897Z,17.70
2023-03-02T21:14:19.049Z,16.58
2023-03-02T21:17:20.967Z,17.73
2023-03-02T21:20:24.990Z,17.30
2023-03-02T21:23:27.186Z,16.27
2023-03-02T21:26:29.103Z,17.48
2023-03-02T21:29:31.013Z,17.27
2023-03-02T21:32:33.509Z,19.30
2023-03-02T21:35:35.906Z,18.67
2023-03-02T21:38:37.853Z,18.05
2023-03-02T21:41:40.024Z,17.20
2023-03-02T21:44:42.797Z,17.15
2023-03-02T21:47:45.760Z,17.85
2023-03-02T21:53:52.237Z,17.67
2023-03-02T21:56:54.182Z,18.85
2023-03-02T21:59:56.187Z,18.17
2023-03-02T22:02:58.459Z,17.38
2023-03-02T22:06:00.432Z,18.15
2023-03-02T22:09:03.063Z,19.02
2023-03-02T22:12:13.358Z,18.98
2023-03-02T22:15:15.711Z,18.67
2023-03-02T22:18:20.902Z,18.00
2023-03-02T22:21:28.570Z,19.02
2023-03-02T22:24:32.300Z,18.52
2023-03-02T22:27:35.605Z,17.85
2023-03-02T22:30:37.585Z,20.13
2023-03-02T22:33:39.616Z,18.98
2023-03-02T22:36:42.170Z,18.90
2023-03-02T22:39:45.143Z,19.23
2023-03-02T22:45:52.397Z,17.77
2023-03-02T22:48:54.609Z,17.85
2023-03-02T22:52:01.384Z,16.92
2023-03-02T22:55:23.483Z,17.63
2023-03-02T22:58:28.254Z,18.40
2023-03-02T23:01:43.256Z,18.23
2023-03-02T23:07:47.680Z,18.85
2023-03-02T23:10:51.521Z,19.08
2023-03-02T23:13:53.754Z,18.63
2023-03-02T23:17:01.714Z,18.70
2023-03-02T23:20:06.664Z,19.80
2023-03-02T23:23:08.692Z,18.98
2023-03-02T23:26:10.709Z,19.38
2023-03-02T23:29:13.051Z,19.73
2023-03-02T23:32:16.667Z,19.05
2023-03-02T23:35:19.813Z,20.67
2023-03-02T23:38:21.856Z,20.17
2023-03-02T23:41:23.920Z,19.27
2023-03-02T23:44:25.921Z,18.60
2023-03-02T23:47:27.920Z,18.92
2023-03-02T23:50:29.931Z,20.15
2023-03-02T23:53:32.288Z,22.45
2023-03-02T23:56:34.304Z,22.45
2023-03-02T23:59:38.720Z,20.92
